Eaton, OH (45320)

9:39 PM EDT on March 27, 2017 (GMT -0400)
KOHEATON2 | | Change Station

Elev 997 ft 39.74 °N, 84.60 °W | Updated 3 seconds ago

Rain
Rain
59.3 °F
Feels Like 59.3 °F
N
4.0
Wind Variable Wind from SE
Gusts 9.0 mph

Today
High -- | Low -- °F
--% Chance of Precip.
Yesterday
High -- | Low -- °F
Precip. -- in
Pressure 29.87 in
Visibility 4.0 miles
Clouds Scattered Clouds 1300 ft
Mostly Cloudy 2000 ft
Overcast 3500 ft
Dew Point 55 °F
Humidity 86%
Rainfall 0.01 in
Snow Depth Not available.
7:30 AM 7:57 PM
Waning Crescent, 0% visible
METAR KMWO 280135Z AUTO 00000KT 4SM +RA SCT013 BKN020 OVC035 15/12 A2987 RMK AO2 T01530120
Pressure 29.87 in
Visibility 4.0 miles
Clouds Scattered Clouds 1300 ft
Mostly Cloudy 2000 ft
Overcast 3500 ft
Dew Point 55 °F
Humidity 86%
Rainfall 0.01 in
Snow Depth Not available.
7:30 AM 7:57 PM
Waning Crescent, 0% visible
METAR KMWO 280135Z AUTO 00000KT 4SM +RA SCT013 BKN020 OVC035 15/12 A2987 RMK AO2 T01530120

Get Severe Weather Alerts

Thanks for signing up!

Be on the lookout for a verification email in your inbox.

You'll start receiving the daily forecast at 8 AM.

×

10-Day Weather Forecast

Almanac

Astronomy

Mar. 27, 2017 Rise Set
Actual Time
Civil Twilight
Nautical Twilight
Astronomical Twilight
Moon
Length of Visible Light
Length of Day
Tomorrow will be .
, % of the Moon is Illuminated

Today's Extremes

State Highs State Lows

Community

WunderPhotos

Upload Photos

1,962,540 photos uploaded!

WunderBlog® & News

Nearby

Air Quality

  Air Quality AQ Index Pollutant
Not available.

Snow Depth

Station Depth Elevation

Earthquake Activity

City Distance Mag. Time & Date
Minimum magnitude displayed is 2.5.

Earthquake Activity

City Distance Mag. Time & Date
Minimum magnitude displayed is 2.5.

Coastal Water Temperatures

Place Temperature

Stations

Nearby Weather Stations

Station Location Temp. Windchill Dew Point Humidity Wind Precip. Elev Updated Type
                   

Watches & Warnings

There are currently no watches in effect.